Time;durP1;ratioP1;P1;durP2;ratioP2;P2;SDS_P1;SDS_P2;PMS_P1;PMS_P2;Temp;Humidity;BMP_temperature;BMP_pressure;BME280_temperature;BME280_humidity;BME280_pressure;Samples;Min_cycle;Max_cycle;Signal;HPM_P1;HPM_P2
2022/06/18 00:04:06;;;;;;;;;;;;;;;25.90;51.67;101611.75;7285984;19;154052;-57
2022/06/18 00:06:36;;;;;;;;;;;;;;;25.91;51.73;101610.59;7283305;19;151685;-58
2022/06/18 00:09:04;;;;;;;;;;;;;;;25.87;52.52;101607.59;7290611;19;152450;-58
2022/06/18 00:14:09;;;;;;;;;;;;;;;25.89;52.21;101599.63;7285585;19;153227;-56
2022/06/18 00:16:36;;;;;;;;;;;;;;;25.90;52.44;101591.94;7280884;19;154395;-56
2022/06/18 00:19:03;;;;;;;;;;;;;;;25.90;52.31;101589.94;7282792;19;153240;-58
2022/06/18 00:21:30;;;;;;;;;;;;;;;25.91;52.60;101590.78;7286130;19;152771;-57
2022/06/18 00:23:57;;;;;;;;;;;;;;;25.91;52.32;101583.13;7284065;19;153872;-58
2022/06/18 00:26:24;;;;;;;;;;;;;;;25.91;52.54;101577.47;7285793;19;151740;-56
2022/06/18 00:28:50;;;;;;;;;;;;;;;25.94;52.55;101581.63;7291010;19;153895;-57
2022/06/18 00:31:17;;;;;;;;;;;;;;;25.95;52.61;101578.47;7285972;19;154046;-58
2022/06/18 00:33:44;;;;;;;;;;;;;;;25.95;52.67;101581.28;7285102;19;153886;-56
2022/06/18 00:36:14;;;;;;;;;;;;;;;25.94;52.56;101588.09;7280993;19;154324;-56
2022/06/18 00:38:42;;;;;;;;;;;;;;;25.93;53.12;101588.47;7283763;19;151883;-57
2022/06/18 00:41:14;;;;;;;;;;;;;;;25.95;53.22;101583.28;7283724;19;152947;-57
2022/06/18 00:43:44;;;;;;;;;;;;;;;25.94;53.47;101593.78;7283248;19;153434;-56
2022/06/18 00:46:15;;;;;;;;;;;;;;;25.95;54.63;101591.78;7283324;19;152028;-56
2022/06/18 00:48:51;;;;;;;;;;;;;;;25.92;52.04;101598.94;7283353;19;153169;-55
2022/06/18 00:51:22;;;;;;;;;;;;;;;25.91;52.29;101597.28;7289627;19;153396;-56
2022/06/18 00:53:52;;;;;;;;;;;;;;;26.05;52.48;101597.13;7283253;19;153889;-56
2022/06/18 00:56:41;;;;;;;;;;;;;;;26.04;53.18;101599.13;7281924;19;155370;-56
2022/06/18 00:59:13;;;;;;;;;;;;;;;26.02;53.16;101607.16;7284994;19;152935;-56
2022/06/18 01:01:42;;;;;;;;;;;;;;;26.03;53.40;101602.28;7284763;19;153624;-57
2022/06/18 01:04:20;;;;;;;;;;;;;;;26.01;53.10;101604.63;7282057;19;153521;-57
2022/06/18 01:06:47;;;;;;;;;;;;;;;26.03;52.62;101602.28;7282207;19;151591;-57
2022/06/18 01:09:15;;;;;;;;;;;;;;;26.05;53.23;101609.31;7283005;19;153271;-56
2022/06/18 01:11:45;;;;;;;;;;;;;;;26.10;52.93;101600.66;7280569;19;153667;-57
2022/06/18 01:14:14;;;;;;;;;;;;;;;26.06;53.59;101599.66;7292683;19;152033;-57
2022/06/18 01:16:41;;;;;;;;;;;;;;;26.08;53.18;101602.13;7280483;19;153174;-59
2022/06/18 01:19:15;;;;;;;;;;;;;;;26.19;53.42;101606.31;7285233;19;151607;-56
2022/06/18 01:21:49;;;;;;;;;;;;;;;26.18;53.16;101610.31;7282136;19;152981;-58
2022/06/18 01:24:19;;;;;;;;;;;;;;;26.12;53.57;101603.13;7280926;19;154630;-58
2022/06/18 01:26:47;;;;;;;;;;;;;;;26.08;53.63;101600.13;7281345;19;151971;-57
2022/06/18 01:29:14;;;;;;;;;;;;;;;26.17;53.63;101604.97;7282067;19;153466;-56
2022/06/18 01:31:41;;;;;;;;;;;;;;;26.15;54.03;101602.50;7282632;19;153602;-55
2022/06/18 01:34:08;;;;;;;;;;;;;;;26.11;54.12;101605.16;7284084;19;151602;-57
2022/06/18 01:36:36;;;;;;;;;;;;;;;26.13;54.68;101599.97;7288853;19;151816;-56
2022/06/18 01:39:06;;;;;;;;;;;;;;;26.14;54.66;101606.50;7282600;19;152953;-55
2022/06/18 01:44:17;;;;;;;;;;;;;;;26.10;54.90;101597.81;7280178;19;153736;-58
2022/06/18 01:46:46;;;;;;;;;;;;;;;26.13;54.08;101602.81;7281809;19;152138;-57
2022/06/18 01:49:15;;;;;;;;;;;;;;;26.15;54.30;101607.31;7280341;19;152517;-57
2022/06/18 01:51:47;;;;;;;;;;;;;;;26.16;54.68;101597.66;7281328;19;153366;-56
2022/06/18 01:54:17;;;;;;;;;;;;;;;26.12;53.66;101601.13;7279666;19;153017;-55
2022/06/18 01:56:46;;;;;;;;;;;;;;;26.12;54.77;101594.63;7281485;19;153790;-56
2022/06/18 01:59:16;;;;;;;;;;;;;;;26.15;54.47;101590.31;7288083;19;153545;-57
2022/06/18 02:01:44;;;;;;;;;;;;;;;26.19;55.11;101597.84;7285571;19;152307;-55
2022/06/18 02:04:12;;;;;;;;;;;;;;;26.14;55.15;101598.00;7285989;19;154162;-56
2022/06/18 02:06:46;;;;;;;;;;;;;;;26.25;54.53;101596.56;7286202;19;151890;-57
2022/06/18 02:09:22;;;;;;;;;;;;;;;26.13;55.09;101591.47;7286124;19;153487;-55
2022/06/18 02:11:49;;;;;;;;;;;;;;;26.23;54.90;101596.03;7286526;19;153845;-56
2022/06/18 02:14:16;;;;;;;;;;;;;;;26.24;54.67;101591.19;7284634;19;152292;-56
2022/06/18 02:16:45;;;;;;;;;;;;;;;26.22;54.41;101599.19;7289011;19;153923;-56
2022/06/18 02:19:14;;;;;;;;;;;;;;;26.20;53.88;101591.00;7287067;19;154496;-57
2022/06/18 02:21:43;;;;;;;;;;;;;;;26.18;54.56;101599.00;7297880;19;152542;-55
2022/06/18 02:24:10;;;;;;;;;;;;;;;26.20;54.49;101593.00;7286900;19;154206;-56
2022/06/18 02:26:40;;;;;;;;;;;;;;;26.10;53.83;101595.00;7287468;19;151865;-57
2022/06/18 02:29:16;;;;;;;;;;;;;;;26.13;54.46;101593.47;7289821;19;152618;-57
2022/06/18 02:31:45;;;;;;;;;;;;;;;26.19;54.43;101585.66;7283044;19;153533;-56
2022/06/18 02:34:16;;;;;;;;;;;;;;;26.13;54.04;101590.66;7288275;19;153847;-57
2022/06/18 02:36:42;;;;;;;;;;;;;;;26.11;54.43;101590.16;7288753;19;153623;-55
2022/06/18 02:39:16;;;;;;;;;;;;;;;26.13;53.84;101594.31;7288151;19;153437;-56
2022/06/18 02:41:43;;;;;;;;;;;;;;;26.13;54.03;101590.66;7291476;19;151973;-56
2022/06/18 02:44:11;;;;;;;;;;;;;;;26.10;54.63;101596.97;7288804;19;153325;-55
2022/06/18 02:46:39;;;;;;;;;;;;;;;26.12;53.78;101586.97;7286945;19;151677;-57
2022/06/18 02:49:07;;;;;;;;;;;;;;;26.11;54.82;101587.31;7287815;19;153462;-57
2022/06/18 02:51:35;;;;;;;;;;;;;;;26.12;54.21;101581.31;7280599;19;153947;-56
2022/06/18 02:54:02;;;;;;;;;;;;;;;26.10;54.24;101583.66;7289152;19;151731;-56
2022/06/18 02:56:29;;;;;;;;;;;;;;;26.07;54.38;101587.13;7285728;19;153787;-56
2022/06/18 02:58:56;;;;;;;;;;;;;;;26.05;54.42;101580.97;7282758;19;153420;-56
2022/06/18 03:01:25;;;;;;;;;;;;;;;26.06;54.37;101585.50;7289049;19;151855;-57
2022/06/18 03:03:57;;;;;;;;;;;;;;;26.19;54.20;101591.31;7291217;19;151663;-57
2022/06/18 03:06:25;;;;;;;;;;;;;;;26.11;54.30;101581.66;7282699;19;152176;-56
2022/06/18 03:08:52;;;;;;;;;;;;;;;26.11;54.83;101595.81;7288722;19;152844;-56
2022/06/18 03:13:57;;;;;;;;;;;;;;;26.11;54.72;101584.50;7286635;19;151593;-56
2022/06/18 03:16:24;;;;;;;;;;;;;;;26.09;54.46;101586.81;7286107;19;153495;-55
2022/06/18 03:18:52;;;;;;;;;;;;;;;26.06;54.65;101594.00;7286178;19;154175;-56
2022/06/18 03:21:29;;;;;;;;;;;;;;;26.06;54.36;101585.50;7286986;19;151704;-55
2022/06/18 03:23:56;;;;;;;;;;;;;;;26.05;54.69;101585.81;7285461;19;152667;-57
2022/06/18 03:26:23;;;;;;;;;;;;;;;26.12;54.90;101592.63;7291325;19;153903;-56
2022/06/18 03:28:51;;;;;;;;;;;;;;;26.07;54.65;101592.78;7284806;19;152617;-55
2022/06/18 03:31:17;;;;;;;;;;;;;;;26.09;54.99;101589.66;7283786;19;153301;-56
2022/06/18 03:33:46;;;;;;;;;;;;;;;26.11;54.47;101593.00;7286891;19;151779;-56
2022/06/18 03:36:16;;;;;;;;;;;;;;;26.07;54.42;101597.66;7286454;19;153109;-56
2022/06/18 03:38:44;;;;;;;;;;;;;;;26.10;54.67;101597.81;7284945;19;153315;-56
2022/06/18 03:41:12;;;;;;;;;;;;;;;26.13;55.06;101596.31;7283744;19;152274;-57
2022/06/18 03:43:39;;;;;;;;;;;;;;;26.09;54.62;101604.66;7282313;19;152616;-55
2022/06/18 03:46:08;;;;;;;;;;;;;;;26.05;55.18;101595.16;7285273;19;154308;-56
2022/06/18 03:48:42;;;;;;;;;;;;;;;26.05;54.60;101597.97;7292805;19;151609;-56
2022/06/18 03:51:09;;;;;;;;;;;;;;;26.09;54.96;101598.13;7284059;19;154163;-55
2022/06/18 03:53:36;;;;;;;;;;;;;;;26.08;55.14;101594.47;7284970;19;152038;-55
2022/06/18 03:56:03;;;;;;;;;;;;;;;26.07;54.90;101597.66;7283848;19;153127;-57
2022/06/18 03:58:30;;;;;;;;;;;;;;;26.06;54.66;101593.16;7285400;19;154379;-57
2022/06/18 04:00:57;;;;;;;;;;;;;;;26.05;55.08;101600.81;7282904;19;152122;-56
2022/06/18 04:03:23;;;;;;;;;;;;;;;26.05;54.77;101602.81;7284384;19;153616;-56
2022/06/18 04:05:50;;;;;;;;;;;;;;;26.05;55.22;101597.13;7283882;19;154002;-56
2022/06/18 04:08:20;;;;;;;;;;;;;;;26.04;54.83;101589.81;7285156;19;151812;-55
2022/06/18 04:10:47;;;;;;;;;;;;;;;26.08;54.78;101596.47;7288297;19;152888;-55
2022/06/18 04:13:15;;;;;;;;;;;;;;;26.04;54.53;101592.63;7286674;19;151999;-55
2022/06/18 04:15:42;;;;;;;;;;;;;;;26.02;55.17;101592.97;7282590;19;153584;-56
2022/06/18 04:18:16;;;;;;;;;;;;;;;26.05;55.18;101591.47;7282228;19;153920;-57
2022/06/18 04:20:43;;;;;;;;;;;;;;;26.02;54.82;101589.31;7283503;19;152427;-56
2022/06/18 04:23:11;;;;;;;;;;;;;;;26.03;54.68;101586.13;7282037;19;153368;-56
2022/06/18 04:25:45;;;;;;;;;;;;;;;26.03;54.98;101588.13;7283974;19;153944;-56
2022/06/18 04:28:14;;;;;;;;;;;;;;;26.03;54.97;101585.28;7284683;19;151887;-56
2022/06/18 04:30:40;;;;;;;;;;;;;;;26.06;55.07;101591.16;7285605;19;153535;-56
2022/06/18 04:33:07;;;;;;;;;;;;;;;26.01;54.91;101591.31;7289434;19;151665;-56
2022/06/18 04:35:40;;;;;;;;;;;;;;;26.04;55.40;101584.13;7284670;19;153665;-55
2022/06/18 04:38:09;;;;;;;;;;;;;;;26.03;55.48;101591.78;7284886;19;153999;-54
2022/06/18 04:40:36;;;;;;;;;;;;;;;26.03;55.50;101588.97;7283427;19;152289;-56
2022/06/18 04:43:23;;;;;;;;;;;;;;;26.06;54.61;101591.16;7285055;19;153653;-55
2022/06/18 04:45:49;;;;;;;;;;;;;;;26.01;55.22;101581.97;7284277;19;153251;-57
2022/06/18 04:48:16;;;;;;;;;;;;;;;26.06;55.34;101584.66;7286241;19;152545;-56
2022/06/18 04:50:43;;;;;;;;;;;;;;;26.07;54.99;101586.31;7284698;19;153531;-57
2022/06/18 04:53:10;;;;;;;;;;;;;;;26.06;55.23;101585.50;7291660;19;153148;-56
2022/06/18 04:55:40;;;;;;;;;;;;;;;26.03;55.18;101582.47;7285602;19;153137;-56
2022/06/18 04:58:07;;;;;;;;;;;;;;;26.06;55.11;101581.81;7282150;19;154829;-56
2022/06/18 05:00:34;;;;;;;;;;;;;;;26.05;55.29;101578.16;7281519;19;151853;-55
2022/06/18 05:03:01;;;;;;;;;;;;;;;26.04;55.05;101584.97;7283178;19;153283;-57
2022/06/18 05:05:44;;;;;;;;;;;;;;;26.03;54.70;101583.28;7280911;19;154552;-56
2022/06/18 05:08:11;;;;;;;;;;;;;;;26.04;54.99;101575.63;7284847;19;151884;-57
2022/06/18 05:10:38;;;;;;;;;;;;;;;26.06;54.97;101588.31;7281868;19;152624;-55
2022/06/18 05:13:06;;;;;;;;;;;;;;;26.02;54.62;101584.50;7283191;19;153244;-55
2022/06/18 05:15:40;;;;;;;;;;;;;;;26.02;54.43;101586.47;7291509;19;151965;-56
2022/06/18 05:18:07;;;;;;;;;;;;;;;26.04;54.54;101587.81;7283285;19;153310;-54
2022/06/18 05:20:33;;;;;;;;;;;;;;;26.01;54.58;101587.63;7283305;19;153323;-57
2022/06/18 05:23:01;;;;;;;;;;;;;;;26.03;54.83;101582.47;7281942;19;153100;-57
2022/06/18 05:25:42;;;;;;;;;;;;;;;26.04;54.54;101586.97;7281989;19;153653;-55
2022/06/18 05:28:11;;;;;;;;;;;;;;;26.03;55.04;101586.13;7283041;19;151860;-57
2022/06/18 05:30:38;;;;;;;;;;;;;;;26.04;54.34;101590.63;7281683;19;153526;-55
2022/06/18 05:33:06;;;;;;;;;;;;;;;26.02;54.42;101595.81;7283410;19;153164;-56
2022/06/18 05:35:40;;;;;;;;;;;;;;;26.13;54.22;101596.31;7289129;19;151772;-55
2022/06/18 05:38:07;;;;;;;;;;;;;;;26.04;54.13;101599.13;7295938;19;152478;-55
2022/06/18 05:40:34;;;;;;;;;;;;;;;26.01;54.30;101602.63;7289570;19;152045;-57
2022/06/18 05:43:00;;;;;;;;;;;;;;;26.02;54.91;101597.81;7288202;19;153499;-56
2022/06/18 05:45:42;;;;;;;;;;;;;;;26.00;55.54;101600.97;7289142;19;153517;-55
2022/06/18 05:48:11;;;;;;;;;;;;;;;26.03;55.40;101608.78;7288721;19;151815;-56
2022/06/18 05:50:38;;;;;;;;;;;;;;;26.01;54.56;101605.47;7289147;19;152886;-56
2022/06/18 05:53:04;;;;;;;;;;;;;;;26.04;55.16;101613.28;7286730;19;153792;-56
2022/06/18 05:55:33;;;;;;;;;;;;;;;26.01;54.34;101611.13;7289491;19;151914;-56
2022/06/18 05:58:05;;;;;;;;;;;;;;;26.02;54.48;101598.66;7289186;19;152296;-56
2022/06/18 06:00:32;;;;;;;;;;;;;;;26.05;54.63;101606.47;7293692;19;154165;-56
2022/06/18 06:02:58;;;;;;;;;;;;;;;26.02;54.55;101604.31;7288764;19;153292;-57
2022/06/18 06:05:34;;;;;;;;;;;;;;;26.02;54.48;101609.97;7287594;19;154265;-56
2022/06/18 06:08:12;;;;;;;;;;;;;;;26.04;54.88;101603.97;7288663;19;152012;-55
2022/06/18 06:13:25;;;;;;;;;;;;;;;26.03;54.71;101594.63;7288235;19;153736;-55
2022/06/18 06:15:53;;;;;;;;;;;;;;;26.03;54.86;101596.63;7288172;19;153579;-56
2022/06/18 06:18:27;;;;;;;;;;;;;;;26.00;54.70;101592.47;7288199;19;153131;-56
2022/06/18 06:20:55;;;;;;;;;;;;;;;26.01;54.55;101588.47;7287508;19;153256;-55
2022/06/18 06:23:22;;;;;;;;;;;;;;;26.02;54.50;101584.50;7297611;19;151668;-56
2022/06/18 06:25:49;;;;;;;;;;;;;;;26.02;54.09;101601.47;7287565;19;155400;-57
2022/06/18 06:28:16;;;;;;;;;;;;;;;26.01;54.25;101602.63;7288647;19;151789;-57
2022/06/18 06:30:43;;;;;;;;;;;;;;;26.00;54.84;101600.97;7288275;19;153338;-56
2022/06/18 06:33:10;;;;;;;;;;;;;;;26.01;54.42;101594.13;7284800;19;153946;-57
2022/06/18 06:35:47;;;;;;;;;;;;;;;26.01;54.55;101605.47;7289356;19;152028;-57
2022/06/18 06:38:15;;;;;;;;;;;;;;;26.01;54.41;101605.47;7287586;19;154846;-55
2022/06/18 06:40:43;;;;;;;;;;;;;;;26.01;54.59;101596.13;7287294;19;154768;-55
2022/06/18 06:43:11;;;;;;;;;;;;;;;26.02;54.47;101607.16;7297001;19;152035;-57
2022/06/18 06:45:43;;;;;;;;;;;;;;;26.02;54.43;101612.81;7285422;19;153957;-56
2022/06/18 06:48:10;;;;;;;;;;;;;;;26.03;54.92;101599.44;7287567;19;151818;-55
2022/06/18 06:50:37;;;;;;;;;;;;;;;26.01;54.31;101596.13;7288764;19;152610;-57
2022/06/18 06:53:04;;;;;;;;;;;;;;;26.03;54.28;101594.63;7286410;19;153243;-57
2022/06/18 06:58:28;;;;;;;;;;;;;;;26.02;54.67;101598.66;7288013;19;152818;-56
2022/06/18 07:01:02;;;;;;;;;;;;;;;26.02;54.64;101592.97;7283259;19;154028;-56
2022/06/18 07:03:45;;;;;;;;;;;;;;;26.03;54.17;101608.78;7286244;19;152135;-57
2022/06/18 07:06:21;;;;;;;;;;;;;;;26.03;54.55;101593.78;7293581;19;152133;-57
2022/06/18 07:08:52;;;;;;;;;;;;;;;26.05;54.82;101597.13;7287140;19;151979;-57
2022/06/18 07:11:18;;;;;;;;;;;;;;;26.11;54.52;101598.66;7285311;19;153628;-56
2022/06/18 07:13:45;;;;;;;;;;;;;;;26.06;54.34;101604.47;7287412;19;154272;-55
2022/06/18 07:16:13;;;;;;;;;;;;;;;26.02;54.55;101601.47;7286915;19;151755;-56
2022/06/18 07:18:40;;;;;;;;;;;;;;;26.03;54.25;101600.28;7286867;19;152709;-57
2022/06/18 07:21:10;;;;;;;;;;;;;;;26.06;54.39;101604.47;7283898;19;154309;-55
2022/06/18 07:23:37;;;;;;;;;;;;;;;26.07;54.95;101598.47;7287896;19;152412;-56
2022/06/18 07:26:17;;;;;;;;;;;;;;;26.03;54.22;101590.97;7242565;19;156771;-57
2022/06/18 07:28:48;;;;;;;;;;;;;;;26.09;53.82;101592.47;7285621;19;152786;-57
2022/06/18 07:31:23;;;;;;;;;;;;;;;26.05;52.65;101594.31;7281092;19;153120;-56
2022/06/18 07:33:55;;;;;;;;;;;;;;;25.99;52.03;101590.78;7284101;19;154214;-55
2022/06/18 07:36:22;;;;;;;;;;;;;;;25.99;52.46;101587.13;7282806;19;151734;-55
2022/06/18 07:38:49;;;;;;;;;;;;;;;26.01;52.54;101584.81;7285539;19;152612;-56
2022/06/18 07:41:19;;;;;;;;;;;;;;;25.95;52.04;101581.28;7282956;19;154232;-56
2022/06/18 07:43:52;;;;;;;;;;;;;;;25.97;52.38;101572.47;7286171;19;152002;-55
2022/06/18 07:46:19;;;;;;;;;;;;;;;25.96;52.43;101565.97;7284165;19;153171;-56
2022/06/18 07:48:46;;;;;;;;;;;;;;;25.92;52.04;101566.97;7282937;19;154007;-55
2022/06/18 07:51:13;;;;;;;;;;;;;;;25.89;51.75;101564.81;7290529;19;152311;-56
2022/06/18 07:53:39;;;;;;;;;;;;;;;25.87;51.81;101559.47;7279704;19;152122;-56
2022/06/18 07:56:08;;;;;;;;;;;;;;;25.91;52.01;101556.78;7285499;19;151644;-55
2022/06/18 07:58:35;;;;;;;;;;;;;;;25.93;51.92;101552.50;7284629;19;153485;-56
2022/06/18 08:01:02;;;;;;;;;;;;;;;25.92;52.04;101539.50;7285868;19;153219;-56
2022/06/18 08:03:30;;;;;;;;;;;;;;;25.96;51.54;101539.66;7285024;19;152140;-56
2022/06/18 08:05:57;;;;;;;;;;;;;;;25.93;51.24;101543.16;7286811;19;153163;-56
2022/06/18 08:08:24;;;;;;;;;;;;;;;25.92;51.30;101545.16;7285450;19;154321;-55
2022/06/18 08:11:02;;;;;;;;;;;;;;;25.93;51.06;101529.00;7285936;19;152181;-56
2022/06/18 08:13:29;;;;;;;;;;;;;;;25.91;51.76;101531.31;7286224;19;153268;-56
2022/06/18 08:15:56;;;;;;;;;;;;;;;25.89;51.90;101523.16;7286643;19;151703;-55
2022/06/18 08:18:22;;;;;;;;;;;;;;;25.91;51.44;101537.81;7286895;19;153187;-56
2022/06/18 08:20:56;;;;;;;;;;;;;;;25.90;51.25;101540.97;7283089;19;154151;-54
2022/06/18 08:23:23;;;;;;;;;;;;;;;25.90;49.69;101533.31;7284375;19;151986;-57
2022/06/18 08:25:50;;;;;;;;;;;;;;;25.85;50.67;101527.81;7284836;19;152709;-56
2022/06/18 08:28:16;;;;;;;;;;;;;;;25.84;50.10;101536.66;7285301;19;153512;-56
2022/06/18 08:30:43;;;;;;;;;;;;;;;25.84;50.22;101542.31;7285472;19;151601;-57
2022/06/18 08:33:10;;;;;;;;;;;;;;;25.80;50.16;101532.81;7280505;19;152615;-56
2022/06/18 08:35:45;;;;;;;;;;;;;;;25.74;50.29;101517.13;7242396;19;154099;-55
2022/06/18 08:38:14;;;;;;;;;;;;;;;25.76;50.47;101523.31;7277532;19;153370;-56
2022/06/18 08:41:09;;;;;;;;;;;;;;;25.73;50.04;101532.44;7282138;19;153237;-56
2022/06/18 08:43:44;;;;;;;;;;;;;;;25.78;50.24;101530.31;7280655;19;152161;-55
2022/06/18 08:46:11;;;;;;;;;;;;;;;25.80;49.71;101525.16;7283244;19;153557;-57
2022/06/18 08:48:41;;;;;;;;;;;;;;;25.76;50.12;101509.97;7276837;19;155958;-56
2022/06/18 08:51:07;;;;;;;;;;;;;;;25.72;49.80;101500.47;7283038;19;152114;-56
2022/06/18 08:53:45;;;;;;;;;;;;;;;25.74;49.96;101515.13;7281266;19;157893;-55
2022/06/18 08:56:18;;;;;;;;;;;;;;;25.67;50.14;101509.13;7286646;19;153108;-56
2022/06/18 08:58:51;;;;;;;;;;;;;;;25.68;49.76;101494.66;7282660;19;153347;-56
2022/06/18 09:01:22;;;;;;;;;;;;;;;25.70;50.10;101501.97;7281999;19;153234;-55
2022/06/18 09:04:00;;;;;;;;;;;;;;;25.69;50.33;101520.94;7280917;19;152000;-55
2022/06/18 09:06:36;;;;;;;;;;;;;;;25.70;50.27;101516.97;7282358;19;152726;-55
2022/06/18 09:09:09;;;;;;;;;;;;;;;25.71;50.53;101541.28;7279456;19;153642;-55
2022/06/18 09:11:44;;;;;;;;;;;;;;;25.71;50.16;101555.44;7283558;19;152722;-55
2022/06/18 09:14:17;;;;;;;;;;;;;;;25.69;50.26;101557.75;7278906;19;153610;-56
2022/06/18 09:16:48;;;;;;;;;;;;;;;25.69;50.38;101554.91;7279898;19;154385;-56
2022/06/18 09:19:17;;;;;;;;;;;;;;;25.66;50.36;101545.09;7291988;19;151999;-56
2022/06/18 09:21:55;;;;;;;;;;;;;;;25.67;50.42;101546.75;7282655;19;155430;-56
2022/06/18 09:24:25;;;;;;;;;;;;;;;25.70;50.37;101533.13;7281640;19;151737;-56
2022/06/18 09:26:55;;;;;;;;;;;;;;;25.68;50.70;101491.81;7282444;19;153357;-56
2022/06/18 09:29:34;;;;;;;;;;;;;;;25.70;50.46;101488.66;7283053;19;153328;-56
2022/06/18 09:32:10;;;;;;;;;;;;;;;25.72;50.50;101491.97;7281771;19;152350;-55
2022/06/18 09:34:46;;;;;;;;;;;;;;;25.71;50.65;101501.66;7283438;19;152636;-54
2022/06/18 09:37:16;;;;;;;;;;;;;;;25.77;50.70;101500.31;7277457;19;153991;-56
2022/06/18 09:39:48;;;;;;;;;;;;;;;25.83;50.24;101499.00;7282789;19;151984;-56
2022/06/18 09:42:22;;;;;;;;;;;;;;;25.86;50.61;101501.16;7288574;19;151955;-54
2022/06/18 09:45:32;;;;;;;;;;;;;;;25.89;50.46;101517.50;7284436;19;151984;-54
2022/06/18 09:48:07;;;;;;;;;;;;;;;25.88;51.25;101510.16;7275428;19;153274;-55
2022/06/18 09:50:36;;;;;;;;;;;;;;;25.88;51.21;101504.50;7274647;19;153919;-55
2022/06/18 09:53:06;;;;;;;;;;;;;;;25.87;50.91;101511.31;7279583;19;151938;-56
2022/06/18 09:55:46;;;;;;;;;;;;;;;25.87;50.73;101511.31;7281924;19;152679;-55
2022/06/18 09:58:20;;;;;;;;;;;;;;;25.90;51.47;101490.00;7227005;19;155001;-56
2022/06/18 10:00:47;;;;;;;;;;;;;;;25.92;50.68;101482.00;7276945;19;152236;-56
2022/06/18 10:06:52;;;;;;;;;;;;;;;25.91;50.74;101489.66;7280417;19;152010;-56
2022/06/18 10:08:51;;;;;;;;;;;;;;;25.88;50.72;101473.34;7280785;19;153053;-56
2022/06/18 10:11:23;;;;;;;;;;;;;;;25.88;51.28;101493.19;7277636;19;154236;-56
2022/06/18 10:13:57;;;;;;;;;;;;;;;25.90;52.12;101518.31;7276348;19;152847;-55
2022/06/18 10:17:02;;;;;;;;;;;;;;;25.88;51.45;101518.66;7279980;19;153800;-54
2022/06/18 10:19:49;;;;;;;;;;;;;;;25.88;51.18;101512.16;7273227;19;153242;-54
2022/06/18 10:22:35;;;;;;;;;;;;;;;25.87;51.35;101490.66;7279077;19;152311;-57
2022/06/18 10:25:08;;;;;;;;;;;;;;;25.87;51.00;101494.34;7283721;19;153730;-56
2022/06/18 10:27:46;;;;;;;;;;;;;;;25.85;51.09;101485.31;7287323;19;153843;-56
2022/06/18 10:30:32;;;;;;;;;;;;;;;25.84;50.96;101483.69;7295951;19;151727;-55
2022/06/18 10:33:05;;;;;;;;;;;;;;;25.81;51.07;101487.16;7285998;19;153679;-56
2022/06/18 10:35:44;;;;;;;;;;;;;;;25.81;51.03;101498.47;7286215;19;151904;-54
2022/06/18 10:38:19;;;;;;;;;;;;;;;25.79;50.97;101515.00;7286023;19;152592;-56
2022/06/18 10:40:48;;;;;;;;;;;;;;;25.80;51.23;101532.81;7286076;19;153792;-54
2022/06/18 10:43:30;;;;;;;;;;;;;;;25.79;51.55;101540.47;7286739;19;152679;-54
2022/06/18 10:46:17;;;;;;;;;;;;;;;25.77;51.56;101544.78;7286679;19;152654;-54
2022/06/18 10:48:53;;;;;;;;;;;;;;;25.77;52.43;101545.59;7287198;19;153336;-55
2022/06/18 10:51:23;;;;;;;;;;;;;;;25.75;52.47;101542.28;7287173;19;151649;-55
2022/06/18 10:53:52;;;;;;;;;;;;;;;25.77;52.37;101531.47;7290411;19;152496;-55
2022/06/18 10:56:25;;;;;;;;;;;;;;;25.77;52.66;101541.94;7288950;19;152521;-55
2022/06/18 10:58:52;;;;;;;;;;;;;;;25.78;52.89;101561.44;7283863;19;153336;-56
2022/06/18 11:01:39;;;;;;;;;;;;;;;25.82;52.74;101584.25;7284797;19;153092;-55
2022/06/18 11:04:24;;;;;;;;;;;;;;;25.77;52.29;101517.31;7288695;19;151882;-55
2022/06/18 11:07:01;;;;;;;;;;;;;;;25.75;52.35;101428.22;7287285;19;153278;-54
2022/06/18 11:09:32;;;;;;;;;;;;;;;25.72;52.51;101460.00;7285237;19;154088;-55
2022/06/18 11:12:07;;;;;;;;;;;;;;;25.72;52.78;101477.00;7287694;19;151741;-54
2022/06/18 11:14:42;;;;;;;;;;;;;;;25.71;53.07;101479.00;7290597;19;153424;-55
2022/06/18 11:17:21;;;;;;;;;;;;;;;25.72;53.70;101500.47;7286902;19;151707;-56
2022/06/18 11:19:52;;;;;;;;;;;;;;;25.77;54.66;101507.97;7285779;19;153215;-55
2022/06/18 11:22:23;;;;;;;;;;;;;;;25.76;54.42;101518.47;7285340;19;154431;-56
2022/06/18 11:24:58;;;;;;;;;;;;;;;25.76;53.83;101517.66;7281596;19;153052;-55
2022/06/18 11:27:30;;;;;;;;;;;;;;;25.80;54.06;101532.81;7285556;19;153495;-56
2022/06/18 11:29:58;;;;;;;;;;;;;;;25.79;54.39;101516.97;7284361;19;154021;-56
2022/06/18 11:32:29;;;;;;;;;;;;;;;25.79;53.99;101526.31;7284074;19;152239;-55
2022/06/18 11:35:00;;;;;;;;;;;;;;;25.81;53.64;101529.63;7283970;19;151789;-56
2022/06/18 11:37:28;;;;;;;;;;;;;;;25.82;53.17;101553.94;7291460;19;152607;-55
2022/06/18 11:40:03;;;;;;;;;;;;;;;25.77;53.44;101531.47;7284465;19;152769;-54
2022/06/18 11:42:39;;;;;;;;;;;;;;;25.78;53.36;101518.97;7283970;19;154222;-54
2022/06/18 11:45:22;;;;;;;;;;;;;;;25.78;52.96;101523.81;7286734;19;151783;-55
2022/06/18 11:48:09;;;;;;;;;;;;;;;25.82;53.09;101504.97;7284228;19;151865;-56
2022/06/18 11:51:01;;;;;;;;;;;;;;;25.81;53.46;101495.66;7284105;19;156672;-55
2022/06/18 11:53:48;;;;;;;;;;;;;;;25.76;53.71;101501.47;7285216;19;152129;-55
2022/06/18 11:56:37;;;;;;;;;;;;;;;25.74;53.85;101492.50;7285549;19;153359;-56
2022/06/18 11:59:19;;;;;;;;;;;;;;;25.70;54.86;101474.50;7280677;19;152767;-54
2022/06/18 12:01:53;;;;;;;;;;;;;;;25.69;54.69;101453.03;7292859;19;151595;-56
2022/06/18 12:04:23;;;;;;;;;;;;;;;25.70;55.20;101437.72;7281540;19;152056;-54
2022/06/18 12:07:10;;;;;;;;;;;;;;;25.70;56.17;101440.53;7285779;19;152469;-55
2022/06/18 12:09:41;;;;;;;;;;;;;;;25.71;56.41;101447.03;7284558;19;152640;-54
2022/06/18 12:12:27;;;;;;;;;;;;;;;25.70;56.72;101446.19;7283134;19;151987;-55
2022/06/18 12:14:59;;;;;;;;;;;;;;;25.66;56.09;101465.84;7282987;19;151910;-55
2022/06/18 12:17:39;;;;;;;;;;;;;;;25.67;56.27;101473.16;7284368;19;154145;-55
2022/06/18 12:20:23;;;;;;;;;;;;;;;25.65;55.89;101449.19;7284487;19;154421;-55
2022/06/18 12:22:55;;;;;;;;;;;;;;;25.65;55.92;101421.72;7285721;19;151808;-54
2022/06/18 12:25:24;;;;;;;;;;;;;;;25.66;55.15;101406.41;7291523;19;153106;-55
2022/06/18 12:28:01;;;;;;;;;;;;;;;25.61;54.83;101429.22;7283824;19;151935;-56
2022/06/18 12:30:38;;;;;;;;;;;;;;;25.57;54.20;101450.03;7285263;19;152606;-55
2022/06/18 12:33:09;;;;;;;;;;;;;;;25.55;54.47;101433.34;7283070;19;153486;-54
2022/06/18 12:35:44;;;;;;;;;;;;;;;25.53;54.99;101461.09;7281623;19;151846;-56
2022/06/18 12:38:14;;;;;;;;;;;;;;;25.56;55.12;101513.44;7284231;19;152596;-55
2022/06/18 12:40:52;;;;;;;;;;;;;;;25.55;54.92;101514.59;7281707;19;154855;-56
2022/06/18 12:43:22;;;;;;;;;;;;;;;25.54;54.98;101501.59;7283403;19;152074;-56
2022/06/18 12:46:00;;;;;;;;;;;;;;;25.55;54.42;101506.94;7282934;19;153386;-54
2022/06/18 12:48:32;;;;;;;;;;;;;;;25.57;53.67;101501.78;7290740;19;153782;-56
2022/06/18 12:51:22;;;;;;;;;;;;;;;25.54;53.27;101533.56;7284984;19;152592;-56
2022/06/18 12:53:51;;;;;;;;;;;;;;;25.52;53.18;101549.19;7277907;19;154207;-56
2022/06/18 12:56:18;;;;;;;;;;;;;;;25.51;53.08;101558.84;7284363;19;152218;-57
2022/06/18 12:59:08;;;;;;;;;;;;;;;25.48;52.17;101568.81;7284299;19;152475;-56
2022/06/18 13:01:40;;;;;;;;;;;;;;;25.50;52.03;101548.66;7282465;19;154362;-56
2022/06/18 13:04:23;;;;;;;;;;;;;;;25.39;52.31;101530.34;7283563;19;151671;-54
2022/06/18 13:06:56;;;;;;;;;;;;;;;25.46;51.82;101551.31;7282877;19;152607;-55
2022/06/18 13:09:29;;;;;;;;;;;;;;;25.52;51.50;101560.50;7282762;19;152985;-59